createdAt,value
2023-05-20T00:00:16.275Z,58.8
2023-05-20T00:05:16.159Z,58.7
2023-05-20T00:10:16.337Z,58.7
2023-05-20T00:15:16.286Z,58.6
2023-05-20T00:20:16.266Z,58.6
2023-05-20T00:25:16.286Z,58.6
2023-05-20T00:30:16.421Z,58.6
2023-05-20T00:35:16.298Z,58.5
2023-05-20T00:40:16.415Z,58.5
2023-05-20T00:45:16.273Z,58.2
2023-05-20T00:50:16.339Z,58.1
2023-05-20T00:55:16.310Z,58.1
2023-05-20T01:00:16.311Z,58.0
2023-05-20T01:05:16.484Z,57.8
2023-05-20T01:10:16.412Z,57.7
2023-05-20T01:15:16.356Z,57.6
2023-05-20T01:20:16.372Z,57.4
2023-05-20T01:25:16.378Z,57.3
2023-05-20T01:30:16.361Z,57.1
2023-05-20T01:35:16.887Z,57.1
2023-05-20T01:40:16.500Z,56.9
2023-05-20T01:45:16.379Z,56.8
2023-05-20T01:50:16.440Z,56.6
2023-05-20T01:55:16.398Z,56.4
2023-05-20T02:00:16.457Z,56.2
2023-05-20T02:05:16.545Z,56.1
2023-05-20T02:10:16.543Z,56.0
2023-05-20T02:15:16.485Z,55.8
2023-05-20T02:20:16.548Z,55.7
2023-05-20T02:25:16.505Z,55.7
2023-05-20T02:30:16.576Z,55.6
2023-05-20T02:35:16.540Z,55.6
2023-05-20T02:40:16.664Z,55.5
2023-05-20T02:45:16.508Z,55.5
2023-05-20T02:50:16.579Z,55.3
2023-05-20T02:55:16.682Z,55.3
2023-05-20T03:00:16.660Z,55.3
2023-05-20T03:05:16.694Z,55.2
2023-05-20T03:10:16.626Z,55.2
2023-05-20T03:15:16.649Z,55.2
2023-05-20T03:20:16.712Z,55.2
2023-05-20T03:25:16.619Z,55.2
2023-05-20T03:30:16.662Z,55.1
2023-05-20T03:35:16.776Z,55.1
2023-05-20T03:40:16.638Z,55.1
2023-05-20T03:45:16.816Z,55.0
2023-05-20T03:50:16.803Z,55.0
2023-05-20T03:55:16.659Z,55.0
2023-05-20T04:00:15.711Z,55.0
2023-05-20T04:05:15.772Z,55.0
2023-05-20T04:10:15.912Z,55.0
2023-05-20T04:15:15.815Z,54.9
2023-05-20T04:20:15.726Z,54.9
2023-05-20T04:25:15.818Z,54.9
2023-05-20T04:30:15.708Z,54.9
2023-05-20T04:35:15.765Z,54.8
2023-05-20T04:40:15.951Z,54.8
2023-05-20T04:45:15.785Z,54.7
2023-05-20T04:50:15.876Z,54.6
2023-05-20T04:55:15.962Z,54.6
2023-05-20T05:00:15.872Z,54.6
2023-05-20T05:05:15.836Z,54.5
2023-05-20T05:10:15.907Z,54.4
2023-05-20T05:15:15.983Z,54.3
2023-05-20T05:20:15.921Z,54.2
2023-05-20T05:25:15.888Z,54.1
2023-05-20T05:30:15.866Z,54.0
2023-05-20T05:35:15.945Z,54.0
2023-05-20T05:40:15.847Z,53.9
2023-05-20T05:45:15.902Z,53.9
2023-05-20T05:50:15.878Z,53.8
2023-05-20T05:55:15.930Z,53.7
2023-05-20T06:00:15.999Z,53.7
2023-05-20T06:05:15.831Z,53.7
2023-05-20T06:10:16.531Z,53.7
2023-05-20T06:15:15.958Z,53.8
2023-05-20T06:20:16.347Z,53.7
2023-05-20T06:25:16.180Z,53.6
2023-05-20T06:30:16.058Z,53.5
2023-05-20T06:35:16.013Z,53.4
2023-05-20T06:40:15.992Z,53.4
2023-05-20T06:45:15.982Z,53.3
2023-05-20T06:50:16.052Z,53.4
2023-05-20T06:55:16.097Z,53.5
2023-05-20T07:00:16.062Z,53.5
2023-05-20T07:05:16.121Z,53.5
2023-05-20T07:10:16.076Z,53.5
2023-05-20T07:15:16.390Z,53.5
2023-05-20T07:20:16.064Z,53.3
2023-05-20T07:25:16.184Z,53.3
2023-05-20T07:30:16.079Z,53.3
2023-05-20T07:35:16.162Z,53.2
2023-05-20T07:40:16.233Z,53.2
2023-05-20T07:45:16.262Z,53.2
2023-05-20T07:50:16.242Z,53.2
2023-05-20T07:55:16.193Z,53.2
2023-05-20T08:00:16.153Z,53.2
2023-05-20T08:05:16.106Z,53.2
2023-05-20T08:10:16.218Z,53.2
2023-05-20T08:15:16.339Z,53.2
2023-05-20T08:20:16.315Z,53.2
2023-05-20T08:25:16.197Z,53.2
2023-05-20T08:30:16.272Z,53.3
2023-05-20T08:35:16.317Z,53.2
2023-05-20T08:40:16.336Z,53.2
2023-05-20T08:45:16.331Z,53.2
2023-05-20T08:50:16.412Z,53.1
2023-05-20T08:55:16.292Z,53.1
2023-05-20T09:00:16.272Z,53.1
2023-05-20T09:05:16.464Z,53.1
2023-05-20T09:10:16.541Z,53.1
2023-05-20T09:15:17.002Z,53.2
2023-05-20T09:20:16.357Z,53.2
2023-05-20T09:25:16.377Z,53.3
2023-05-20T09:30:16.405Z,53.5
2023-05-20T09:35:16.411Z,53.6
2023-05-20T09:40:16.339Z,53.8
2023-05-20T09:45:16.429Z,54.1
2023-05-20T09:50:16.472Z,54.4
2023-05-20T09:55:16.497Z,54.5
2023-05-20T10:00:16.478Z,54.7
2023-05-20T10:05:16.373Z,54.8
2023-05-20T10:10:16.492Z,55.1
2023-05-20T10:15:16.687Z,55.4
2023-05-20T10:20:16.582Z,55.5
2023-05-20T10:25:16.546Z,55.6
2023-05-20T10:30:16.517Z,55.7
2023-05-20T10:35:16.539Z,55.7
2023-05-20T10:40:16.688Z,55.9
2023-05-20T10:45:16.594Z,56.0
2023-05-20T10:50:16.656Z,56.2
2023-05-20T10:55:16.548Z,56.4
2023-05-20T11:00:16.602Z,56.4
2023-05-20T11:05:16.521Z,56.6
2023-05-20T11:10:16.608Z,56.6
2023-05-20T11:15:16.598Z,56.7
2023-05-20T11:20:16.532Z,56.7
2023-05-20T11:25:16.555Z,56.8
2023-05-20T11:30:16.626Z,56.9
2023-05-20T11:35:16.595Z,57.1
2023-05-20T11:40:16.672Z,57.4
2023-05-20T11:45:16.634Z,57.7
2023-05-20T11:50:16.759Z,57.7
2023-05-20T11:55:16.603Z,57.8
2023-05-20T12:00:16.713Z,58.0
2023-05-20T12:05:16.531Z,58.2
2023-05-20T12:10:16.685Z,58.3
2023-05-20T12:15:16.826Z,58.3
2023-05-20T12:20:16.706Z,58.4
2023-05-20T12:25:16.858Z,58.6
2023-05-20T12:30:16.764Z,58.8
2023-05-20T12:35:16.849Z,59.0
2023-05-20T12:40:16.799Z,59.3
2023-05-20T12:45:16.789Z,59.5
2023-05-20T12:50:16.834Z,59.8
2023-05-20T12:55:16.831Z,60.3
2023-05-20T13:00:16.823Z,60.6
2023-05-20T13:05:16.913Z,60.9
2023-05-20T13:10:16.811Z,61.0
2023-05-20T13:15:16.822Z,61.1
2023-05-20T13:20:19.170Z,61.6
2023-05-20T13:25:16.882Z,62.0
2023-05-20T13:30:17.068Z,62.5
2023-05-20T13:35:17.096Z,62.9
2023-05-20T13:40:16.938Z,63.2
2023-05-20T13:45:17.101Z,63.2
2023-05-20T13:50:16.977Z,63.2
2023-05-20T13:55:16.916Z,63.0
2023-05-20T14:00:16.900Z,63.0
2023-05-20T14:05:16.856Z,62.7
2023-05-20T14:10:17.033Z,62.6
2023-05-20T14:15:16.937Z,62.9
2023-05-20T14:20:17.410Z,63.2
2023-05-20T14:25:17.128Z,63.4
2023-05-20T14:30:17.066Z,63.3
2023-05-20T14:35:17.002Z,63.4
2023-05-20T14:40:17.017Z,63.5
2023-05-20T14:45:17.168Z,63.5
2023-05-20T14:50:16.976Z,63.5
2023-05-20T14:55:17.050Z,63.7
2023-05-20T15:00:17.162Z,64.0
2023-05-20T15:05:17.087Z,64.2
2023-05-20T15:10:17.093Z,64.2
2023-05-20T15:15:17.240Z,64.0
2023-05-20T15:20:17.283Z,63.9
2023-05-20T15:25:17.175Z,63.9
2023-05-20T15:30:17.193Z,63.9
2023-05-20T15:35:17.088Z,63.7
2023-05-20T15:40:17.175Z,63.6
2023-05-20T15:45:17.160Z,63.1
2023-05-20T15:50:17.190Z,62.9
2023-05-20T15:55:17.214Z,62.8
2023-05-20T16:00:17.210Z,63.0
2023-05-20T16:05:17.074Z,63.1
2023-05-20T16:10:17.190Z,63.4
2023-05-20T16:15:17.183Z,63.5
2023-05-20T16:20:17.187Z,63.4
2023-05-20T16:25:17.337Z,63.1
2023-05-20T16:30:17.346Z,62.8
2023-05-20T16:35:17.408Z,62.5
2023-05-20T16:40:17.338Z,62.0
2023-05-20T16:45:17.434Z,61.6
2023-05-20T16:50:17.319Z,61.2
2023-05-20T16:55:17.280Z,60.8
2023-05-20T17:00:17.367Z,60.6
2023-05-20T17:05:17.307Z,60.5
2023-05-20T17:10:17.345Z,60.2
2023-05-20T17:15:17.275Z,60.1
2023-05-20T17:20:17.288Z,60.0
2023-05-20T17:25:17.488Z,59.9
2023-05-20T17:30:17.311Z,59.9
2023-05-20T17:35:17.362Z,60.0
2023-05-20T17:40:17.319Z,60.1
2023-05-20T17:45:17.514Z,60.3
2023-05-20T17:50:17.377Z,60.5
2023-05-20T17:55:15.431Z,60.6
2023-05-20T18:00:15.613Z,60.7
2023-05-20T18:05:15.284Z,60.6
2023-05-20T18:10:15.462Z,60.5
2023-05-20T18:15:15.413Z,60.1
2023-05-20T18:20:15.538Z,59.7
2023-05-20T18:25:15.476Z,59.1
2023-05-20T18:30:15.550Z,58.7
2023-05-20T18:35:15.536Z,58.4
2023-05-20T18:40:15.462Z,58.1
2023-05-20T18:45:15.563Z,57.8
2023-05-20T18:50:15.598Z,57.5
2023-05-20T18:55:15.512Z,57.4
2023-05-20T19:00:15.580Z,57.4
2023-05-20T19:05:15.761Z,57.3
2023-05-20T19:10:15.539Z,57.2
2023-05-20T19:15:15.676Z,57.1
2023-05-20T19:20:15.599Z,57.0
2023-05-20T19:25:15.591Z,57.1
2023-05-20T19:30:15.715Z,57.2
2023-05-20T19:35:15.666Z,57.3
2023-05-20T19:40:15.581Z,57.2
2023-05-20T19:45:15.658Z,57.1
2023-05-20T19:50:15.644Z,56.9
2023-05-20T19:55:15.689Z,56.9
2023-05-20T20:00:15.732Z,56.8
2023-05-20T20:05:15.789Z,56.8
2023-05-20T20:10:15.768Z,57.0
2023-05-20T20:15:15.721Z,56.9
2023-05-20T20:20:15.666Z,57.0
2023-05-20T20:25:15.831Z,57.4
2023-05-20T20:30:15.913Z,57.7
2023-05-20T20:35:15.929Z,58.1
2023-05-20T20:40:15.707Z,58.3
2023-05-20T20:45:15.739Z,58.4
2023-05-20T20:50:15.853Z,58.2
2023-05-20T20:55:15.777Z,58.2
2023-05-20T21:00:15.732Z,58.7
2023-05-20T21:05:15.783Z,58.8
2023-05-20T21:10:15.970Z,58.9
2023-05-20T21:15:15.774Z,59.1
2023-05-20T21:20:16.145Z,59.4
2023-05-20T21:25:15.817Z,59.5
2023-05-20T21:30:15.966Z,59.6
2023-05-20T21:35:16.082Z,59.8
2023-05-20T21:40:15.972Z,59.8
2023-05-20T21:45:15.874Z,59.8
2023-05-20T21:50:15.958Z,59.9
2023-05-20T21:55:15.837Z,60.0
2023-05-20T22:00:16.042Z,59.9
2023-05-20T22:05:15.817Z,60.0
2023-05-20T22:10:15.897Z,60.2
2023-05-20T22:15:16.072Z,60.2
2023-05-20T22:20:15.967Z,60.3
2023-05-20T22:25:16.105Z,60.2
2023-05-20T22:30:15.961Z,60.3
2023-05-20T22:35:16.096Z,60.2
2023-05-20T22:40:15.967Z,60.1
2023-05-20T22:45:16.069Z,60.0
2023-05-20T22:50:16.014Z,59.9
2023-05-20T22:55:16.057Z,60.0
2023-05-20T23:00:16.168Z,59.9
2023-05-20T23:05:16.017Z,59.8
2023-05-20T23:10:16.175Z,60.0
2023-05-20T23:15:16.130Z,60.0
2023-05-20T23:20:16.269Z,60.2
2023-05-20T23:25:16.344Z,60.3
2023-05-20T23:30:16.086Z,60.5
2023-05-20T23:35:16.213Z,60.5
2023-05-20T23:40:16.116Z,60.5
2023-05-20T23:45:16.238Z,60.5
2023-05-20T23:50:16.222Z,60.2
2023-05-20T23:55:16.299Z,60.1
